sensor_id;sensor_type;location;lat;lon;timestamp;pressure;altitude;pressure_sealevel;temperature;humidity
66176;BME280;52977;44.816;20.538;2022-12-18T00:01:33;101124.31;;;2.97;89.02
66176;BME280;52977;44.816;20.538;2022-12-18T00:04:02;101149.88;;;3.06;88.80
66176;BME280;52977;44.816;20.538;2022-12-18T00:06:29;101067.97;;;2.48;89.28
66176;BME280;52977;44.816;20.538;2022-12-18T00:08:57;101129.50;;;2.74;89.51
66176;BME280;52977;44.816;20.538;2022-12-18T00:11:26;101139.94;;;2.95;88.92
66176;BME280;52977;44.816;20.538;2022-12-18T00:13:54;101148.03;;;2.95;89.22
66176;BME280;52977;44.816;20.538;2022-12-18T00:16:22;101160.69;;;2.94;89.18
66176;BME280;52977;44.816;20.538;2022-12-18T00:18:50;101087.53;;;2.43;89.00
66176;BME280;52977;44.816;20.538;2022-12-18T00:21:16;101176.97;;;2.76;86.97
66176;BME280;52977;44.816;20.538;2022-12-18T00:23:45;101177.00;;;2.64;83.42
66176;BME280;52977;44.816;20.538;2022-12-18T00:26:17;101174.63;;;2.55;84.26
66176;BME280;52977;44.816;20.538;2022-12-18T00:28:44;101173.50;;;2.33;84.48
66176;BME280;52977;44.816;20.538;2022-12-18T00:31:14;101175.72;;;2.12;84.88
66176;BME280;52977;44.816;20.538;2022-12-18T00:33:41;101191.91;;;2.24;83.32
66176;BME280;52977;44.816;20.538;2022-12-18T00:36:29;101191.69;;;2.37;81.17
66176;BME280;52977;44.816;20.538;2022-12-18T00:38:57;101196.16;;;2.32;79.24
66176;BME280;52977;44.816;20.538;2022-12-18T00:41:24;101202.47;;;2.37;79.14
66176;BME280;52977;44.816;20.538;2022-12-18T00:44:11;101165.03;;;2.05;78.70
66176;BME280;52977;44.816;20.538;2022-12-18T00:46:38;101197.97;;;2.19;79.19
66176;BME280;52977;44.816;20.538;2022-12-18T00:49:04;101214.31;;;2.36;78.36
66176;BME280;52977;44.816;20.538;2022-12-18T00:51:31;101197.19;;;2.31;78.53
66176;BME280;52977;44.816;20.538;2022-12-18T00:53:57;101121.75;;;1.88;78.28
66176;BME280;52977;44.816;20.538;2022-12-18T00:56:24;101212.34;;;2.44;78.87
66176;BME280;52977;44.816;20.538;2022-12-18T00:58:52;101180.41;;;2.17;79.93
66176;BME280;52977;44.816;20.538;2022-12-18T01:01:18;101196.38;;;2.30;80.03
66176;BME280;52977;44.816;20.538;2022-12-18T01:03:44;101226.28;;;2.52;78.78
66176;BME280;52977;44.816;20.538;2022-12-18T01:06:16;101204.72;;;2.52;77.43
66176;BME280;52977;44.816;20.538;2022-12-18T01:08:44;101233.19;;;2.48;77.70
66176;BME280;52977;44.816;20.538;2022-12-18T01:11:17;101237.53;;;2.37;79.07
66176;BME280;52977;44.816;20.538;2022-12-18T01:13:43;101234.69;;;2.32;79.88
66176;BME280;52977;44.816;20.538;2022-12-18T01:16:15;101233.34;;;2.23;80.19
66176;BME280;52977;44.816;20.538;2022-12-18T01:18:42;101230.81;;;2.28;81.15
66176;BME280;52977;44.816;20.538;2022-12-18T01:21:14;101234.69;;;2.44;79.08
66176;BME280;52977;44.816;20.538;2022-12-18T01:23:41;101209.63;;;2.32;78.85
66176;BME280;52977;44.816;20.538;2022-12-18T01:26:15;101224.72;;;2.33;78.65
66176;BME280;52977;44.816;20.538;2022-12-18T01:28:43;101239.53;;;2.42;79.63
66176;BME280;52977;44.816;20.538;2022-12-18T01:31:21;101231.06;;;2.38;78.98
66176;BME280;52977;44.816;20.538;2022-12-18T01:33:48;101246.66;;;2.36;80.14
66176;BME280;52977;44.816;20.538;2022-12-18T01:36:20;101238.25;;;2.45;78.63
66176;BME280;52977;44.816;20.538;2022-12-18T01:38:47;101243.31;;;2.53;78.74
66176;BME280;52977;44.816;20.538;2022-12-18T01:41:16;101241.03;;;2.38;79.84
66176;BME280;52977;44.816;20.538;2022-12-18T01:43:54;101244.22;;;2.47;79.35
66176;BME280;52977;44.816;20.538;2022-12-18T01:46:22;101246.00;;;2.53;78.70
66176;BME280;52977;44.816;20.538;2022-12-18T01:49:01;101257.66;;;2.65;77.87
66176;BME280;52977;44.816;20.538;2022-12-18T01:51:28;101241.31;;;2.18;79.16
66176;BME280;52977;44.816;20.538;2022-12-18T01:53:57;101200.47;;;1.72;80.47
66176;BME280;52977;44.816;20.538;2022-12-18T01:56:24;101225.66;;;2.27;79.43
66176;BME280;52977;44.816;20.538;2022-12-18T01:58:59;101239.19;;;2.50;77.96
66176;BME280;52977;44.816;20.538;2022-12-18T02:01:29;101219.56;;;2.31;77.41
66176;BME280;52977;44.816;20.538;2022-12-18T02:04:22;101267.88;;;2.75;77.08
66176;BME280;52977;44.816;20.538;2022-12-18T02:09:54;101271.47;;;2.69;76.67
66176;BME280;52977;44.816;20.538;2022-12-18T02:12:27;101264.66;;;2.66;76.51
66176;BME280;52977;44.816;20.538;2022-12-18T02:15:11;101272.41;;;2.63;76.13
66176;BME280;52977;44.816;20.538;2022-12-18T02:17:41;101272.91;;;2.41;77.40
66176;BME280;52977;44.816;20.538;2022-12-18T02:20:23;101279.84;;;2.18;78.63
66176;BME280;52977;44.816;20.538;2022-12-18T02:28:41;101266.69;;;2.10;78.48
66176;BME280;52977;44.816;20.538;2022-12-18T02:31:13;101203.00;;;1.67;78.82
66176;BME280;52977;44.816;20.538;2022-12-18T02:33:42;101290.81;;;2.35;78.60
66176;BME280;52977;44.816;20.538;2022-12-18T02:36:10;101275.88;;;2.21;78.15
66176;BME280;52977;44.816;20.538;2022-12-18T02:38:39;101296.16;;;2.24;78.60
66176;BME280;52977;44.816;20.538;2022-12-18T02:41:11;101191.97;;;1.57;79.26
66176;BME280;52977;44.816;20.538;2022-12-18T02:43:40;101300.53;;;1.87;79.71
66176;BME280;52977;44.816;20.538;2022-12-18T02:46:29;101283.34;;;1.88;81.08
66176;BME280;52977;44.816;20.538;2022-12-18T02:49:17;101289.97;;;2.04;80.78
66176;BME280;52977;44.816;20.538;2022-12-18T02:54:55;101293.88;;;1.90;81.14
66176;BME280;52977;44.816;20.538;2022-12-18T02:57:56;101293.97;;;1.83;82.46
66176;BME280;52977;44.816;20.538;2022-12-18T03:03:06;101290.50;;;1.95;82.88
66176;BME280;52977;44.816;20.538;2022-12-18T03:05:38;101296.56;;;2.09;82.21
66176;BME280;52977;44.816;20.538;2022-12-18T03:08:14;101275.03;;;1.90;82.89
66176;BME280;52977;44.816;20.538;2022-12-18T03:11:11;101295.16;;;1.87;84.13
66176;BME280;52977;44.816;20.538;2022-12-18T03:16:25;101288.78;;;2.00;82.72
66176;BME280;52977;44.816;20.538;2022-12-18T03:18:58;101322.53;;;2.03;83.76
66176;BME280;52977;44.816;20.538;2022-12-18T03:21:35;101279.44;;;1.66;85.07
66176;BME280;52977;44.816;20.538;2022-12-18T03:24:06;101314.59;;;2.08;83.62
66176;BME280;52977;44.816;20.538;2022-12-18T03:26:34;101305.94;;;1.87;84.48
66176;BME280;52977;44.816;20.538;2022-12-18T03:29:08;101274.66;;;1.68;83.47
66176;BME280;52977;44.816;20.538;2022-12-18T03:31:37;101283.94;;;1.72;83.82
66176;BME280;52977;44.816;20.538;2022-12-18T03:34:09;101325.38;;;1.90;83.50
66176;BME280;52977;44.816;20.538;2022-12-18T03:36:43;101322.31;;;1.86;83.90
66176;BME280;52977;44.816;20.538;2022-12-18T03:39:10;101269.28;;;1.49;83.08
66176;BME280;52977;44.816;20.538;2022-12-18T03:42:06;101326.34;;;1.77;82.73
66176;BME280;52977;44.816;20.538;2022-12-18T03:47:15;101277.16;;;1.00;81.65
66176;BME280;52977;44.816;20.538;2022-12-18T03:49:54;101323.44;;;1.34;82.96
66176;BME280;52977;44.816;20.538;2022-12-18T03:52:41;101279.34;;;1.10;82.27
66176;BME280;52977;44.816;20.538;2022-12-18T03:55:12;101329.75;;;1.47;81.35
66176;BME280;52977;44.816;20.538;2022-12-18T03:57:42;101331.59;;;1.46;81.56
66176;BME280;52977;44.816;20.538;2022-12-18T04:00:11;101350.09;;;1.61;82.27
66176;BME280;52977;44.816;20.538;2022-12-18T04:02:55;101352.78;;;1.61;82.59
66176;BME280;52977;44.816;20.538;2022-12-18T04:05:32;101247.75;;;0.80;82.24
66176;BME280;52977;44.816;20.538;2022-12-18T04:08:00;101337.44;;;1.43;82.72
66176;BME280;52977;44.816;20.538;2022-12-18T04:10:27;101355.53;;;1.54;81.79
66176;BME280;52977;44.816;20.538;2022-12-18T04:12:57;101354.06;;;1.59;82.18
66176;BME280;52977;44.816;20.538;2022-12-18T04:15:24;101352.78;;;1.43;82.49
66176;BME280;52977;44.816;20.538;2022-12-18T04:17:51;101286.50;;;0.98;82.61
66176;BME280;52977;44.816;20.538;2022-12-18T04:20:21;101331.16;;;1.24;82.63
66176;BME280;52977;44.816;20.538;2022-12-18T04:22:47;101320.31;;;1.12;83.65
66176;BME280;52977;44.816;20.538;2022-12-18T04:25:14;101359.50;;;1.52;81.82
66176;BME280;52977;44.816;20.538;2022-12-18T04:27:52;101371.75;;;1.73;81.56
66176;BME280;52977;44.816;20.538;2022-12-18T04:30:18;101380.75;;;1.60;82.42
66176;BME280;52977;44.816;20.538;2022-12-18T04:32:45;101389.00;;;1.65;81.62
66176;BME280;52977;44.816;20.538;2022-12-18T04:35:11;101312.78;;;0.96;83.47
66176;BME280;52977;44.816;20.538;2022-12-18T04:37:41;101392.28;;;1.67;82.53
66176;BME280;52977;44.816;20.538;2022-12-18T04:40:07;101342.31;;;1.28;82.88
66176;BME280;52977;44.816;20.538;2022-12-18T04:42:40;101410.59;;;1.59;83.20
66176;BME280;52977;44.816;20.538;2022-12-18T04:45:07;101374.84;;;1.26;81.95
66176;BME280;52977;44.816;20.538;2022-12-18T04:47:33;101420.81;;;1.75;80.56
66176;BME280;52977;44.816;20.538;2022-12-18T04:50:01;101405.47;;;1.76;80.61
66176;BME280;52977;44.816;20.538;2022-12-18T04:52:33;101425.25;;;1.63;80.54
66176;BME280;52977;44.816;20.538;2022-12-18T04:54:59;101329.63;;;1.10;81.08
66176;BME280;52977;44.816;20.538;2022-12-18T04:57:25;101434.22;;;1.57;82.03
66176;BME280;52977;44.816;20.538;2022-12-18T04:59:52;101435.25;;;1.30;83.00
66176;BME280;52977;44.816;20.538;2022-12-18T05:02:19;101436.34;;;1.48;83.10
66176;BME280;52977;44.816;20.538;2022-12-18T05:04:45;101400.53;;;1.47;82.04
66176;BME280;52977;44.816;20.538;2022-12-18T05:07:11;101438.28;;;1.66;81.36
66176;BME280;52977;44.816;20.538;2022-12-18T05:09:37;101437.72;;;1.57;82.15
66176;BME280;52977;44.816;20.538;2022-12-18T05:12:03;101430.09;;;1.54;82.69
66176;BME280;52977;44.816;20.538;2022-12-18T05:14:30;101448.59;;;1.44;83.92
66176;BME280;52977;44.816;20.538;2022-12-18T05:16:56;101411.88;;;1.24;83.41
66176;BME280;52977;44.816;20.538;2022-12-18T05:19:22;101422.00;;;1.29;83.92
66176;BME280;52977;44.816;20.538;2022-12-18T05:21:48;101358.16;;;0.85;83.22
66176;BME280;52977;44.816;20.538;2022-12-18T05:24:14;101442.09;;;1.26;84.81
66176;BME280;52977;44.816;20.538;2022-12-18T05:26:41;101456.63;;;1.50;84.51
66176;BME280;52977;44.816;20.538;2022-12-18T05:29:07;101424.97;;;1.21;84.12
66176;BME280;52977;44.816;20.538;2022-12-18T05:31:33;101423.53;;;1.18;84.49
66176;BME280;52977;44.816;20.538;2022-12-18T05:33:59;101436.69;;;1.33;83.38
66176;BME280;52977;44.816;20.538;2022-12-18T05:36:25;101477.75;;;1.53;84.62
66176;BME280;52977;44.816;20.538;2022-12-18T05:38:51;101453.38;;;1.42;84.70
66176;BME280;52977;44.816;20.538;2022-12-18T05:41:17;101445.44;;;1.22;83.65
66176;BME280;52977;44.816;20.538;2022-12-18T05:43:44;101429.97;;;1.10;84.18
66176;BME280;52977;44.816;20.538;2022-12-18T05:46:13;101476.28;;;1.19;85.46
66176;BME280;52977;44.816;20.538;2022-12-18T05:48:40;101422.66;;;0.92;84.67
66176;BME280;52977;44.816;20.538;2022-12-18T05:54:28;101503.63;;;1.16;87.23
66176;BME280;52977;44.816;20.538;2022-12-18T05:56:54;101391.78;;;0.63;86.23
66176;BME280;52977;44.816;20.538;2022-12-18T05:59:21;101473.81;;;1.17;85.42
66176;BME280;52977;44.816;20.538;2022-12-18T06:01:47;101507.13;;;1.16;86.89
66176;BME280;52977;44.816;20.538;2022-12-18T06:04:13;101513.19;;;1.05;87.71
66176;BME280;52977;44.816;20.538;2022-12-18T06:06:39;101465.63;;;0.99;86.90
66176;BME280;52977;44.816;20.538;2022-12-18T06:09:05;101515.19;;;1.23;86.82
66176;BME280;52977;44.816;20.538;2022-12-18T06:11:35;101517.50;;;1.13;88.12
66176;BME280;52977;44.816;20.538;2022-12-18T06:14:02;101524.69;;;1.26;87.36
66176;BME280;52977;44.816;20.538;2022-12-18T06:16:29;101530.47;;;1.23;87.59
66176;BME280;52977;44.816;20.538;2022-12-18T06:18:59;101525.25;;;1.34;86.55
66176;BME280;52977;44.816;20.538;2022-12-18T06:21:27;101539.31;;;1.36;86.06
66176;BME280;52977;44.816;20.538;2022-12-18T06:23:53;101535.91;;;1.16;87.29
66176;BME280;52977;44.816;20.538;2022-12-18T06:26:20;101446.50;;;0.75;86.46
66176;BME280;52977;44.816;20.538;2022-12-18T06:28:46;101526.16;;;1.22;87.42
66176;BME280;52977;44.816;20.538;2022-12-18T06:31:12;101538.78;;;1.14;87.54
66176;BME280;52977;44.816;20.538;2022-12-18T06:33:39;101533.28;;;1.02;89.16
66176;BME280;52977;44.816;20.538;2022-12-18T06:36:07;101482.56;;;0.61;89.55
66176;BME280;52977;44.816;20.538;2022-12-18T06:38:36;101546.53;;;0.97;88.89
66176;BME280;52977;44.816;20.538;2022-12-18T06:41:13;101548.78;;;1.00;88.91
66176;BME280;52977;44.816;20.538;2022-12-18T06:43:41;101561.84;;;0.97;90.35
66176;BME280;52977;44.816;20.538;2022-12-18T06:46:08;101570.88;;;1.16;88.00
66176;BME280;52977;44.816;20.538;2022-12-18T06:48:34;101566.97;;;1.12;87.71
66176;BME280;52977;44.816;20.538;2022-12-18T06:51:01;101582.22;;;1.25;87.46
66176;BME280;52977;44.816;20.538;2022-12-18T06:53:27;101520.72;;;0.83;87.30
66176;BME280;52977;44.816;20.538;2022-12-18T06:56:04;101593.03;;;1.11;88.19
66176;BME280;52977;44.816;20.538;2022-12-18T06:58:30;101528.66;;;0.64;89.26
66176;BME280;52977;44.816;20.538;2022-12-18T07:01:01;101595.50;;;1.13;89.35
66176;BME280;52977;44.816;20.538;2022-12-18T07:03:27;101551.78;;;0.72;89.92
66176;BME280;52977;44.816;20.538;2022-12-18T07:05:53;101562.53;;;0.79;89.12
66176;BME280;52977;44.816;20.538;2022-12-18T07:08:20;101538.78;;;0.69;88.67
66176;BME280;52977;44.816;20.538;2022-12-18T07:10:46;101502.28;;;0.21;90.00
66176;BME280;52977;44.816;20.538;2022-12-18T07:13:15;101568.47;;;0.88;87.50
66176;BME280;52977;44.816;20.538;2022-12-18T07:15:43;101608.03;;;1.32;86.90
66176;BME280;52977;44.816;20.538;2022-12-18T07:18:09;101607.72;;;1.15;87.69
66176;BME280;52977;44.816;20.538;2022-12-18T07:20:36;101619.69;;;1.19;87.36
66176;BME280;52977;44.816;20.538;2022-12-18T07:23:03;101564.44;;;0.51;88.63
66176;BME280;52977;44.816;20.538;2022-12-18T07:25:29;101533.03;;;0.32;88.32
66176;BME280;52977;44.816;20.538;2022-12-18T07:27:55;101616.88;;;0.94;87.19
66176;BME280;52977;44.816;20.538;2022-12-18T07:30:22;101614.88;;;0.49;89.24
66176;BME280;52977;44.816;20.538;2022-12-18T07:32:48;101637.22;;;0.43;91.85
66176;BME280;52977;44.816;20.538;2022-12-18T07:35:14;101655.22;;;0.63;90.40
66176;BME280;52977;44.816;20.538;2022-12-18T07:37:40;101622.53;;;0.32;90.40
66176;BME280;52977;44.816;20.538;2022-12-18T07:40:07;101639.03;;;0.70;89.29
66176;BME280;52977;44.816;20.538;2022-12-18T07:42:33;101641.31;;;0.79;87.93
66176;BME280;52977;44.816;20.538;2022-12-18T07:45:01;101634.31;;;0.78;88.00
66176;BME280;52977;44.816;20.538;2022-12-18T07:47:28;101589.47;;;0.52;87.56
66176;BME280;52977;44.816;20.538;2022-12-18T07:49:58;101657.06;;;0.69;88.45
66176;BME280;52977;44.816;20.538;2022-12-18T07:52:25;101608.47;;;0.50;88.92
66176;BME280;52977;44.816;20.538;2022-12-18T07:54:51;101644.47;;;0.63;90.05
66176;BME280;52977;44.816;20.538;2022-12-18T07:57:17;101649.81;;;0.63;88.79
66176;BME280;52977;44.816;20.538;2022-12-18T07:59:43;101617.97;;;0.26;89.96
66176;BME280;52977;44.816;20.538;2022-12-18T08:02:10;101648.16;;;0.15;92.75
66176;BME280;52977;44.816;20.538;2022-12-18T08:04:36;101647.13;;;0.36;93.57
66176;BME280;52977;44.816;20.538;2022-12-18T08:07:02;101635.56;;;0.49;91.03
66176;BME280;52977;44.816;20.538;2022-12-18T08:09:28;101623.13;;;0.61;89.78
66176;BME280;52977;44.816;20.538;2022-12-18T08:11:54;101656.44;;;0.54;90.76
66176;BME280;52977;44.816;20.538;2022-12-18T08:14:20;101643.81;;;0.21;92.62
66176;BME280;52977;44.816;20.538;2022-12-18T08:16:47;101599.59;;;0.03;93.04
66176;BME280;52977;44.816;20.538;2022-12-18T08:19:13;101661.81;;;0.47;93.04
66176;BME280;52977;44.816;20.538;2022-12-18T08:21:39;101663.88;;;0.65;91.09
66176;BME280;52977;44.816;20.538;2022-12-18T08:24:06;101657.88;;;0.70;89.68
66176;BME280;52977;44.816;20.538;2022-12-18T08:26:32;101667.38;;;0.65;89.83
66176;BME280;52977;44.816;20.538;2022-12-18T08:28:59;101676.28;;;0.73;89.94
66176;BME280;52977;44.816;20.538;2022-12-18T08:31:27;101674.59;;;0.98;90.51
66176;BME280;52977;44.816;20.538;2022-12-18T08:33:54;101661.41;;;0.77;90.38
66176;BME280;52977;44.816;20.538;2022-12-18T08:36:21;101682.88;;;0.90;90.04
66176;BME280;52977;44.816;20.538;2022-12-18T08:38:48;101649.81;;;0.49;90.93
66176;BME280;52977;44.816;20.538;2022-12-18T08:41:16;101680.41;;;0.82;90.03
66176;BME280;52977;44.816;20.538;2022-12-18T08:43:43;101688.25;;;0.83;90.81
66176;BME280;52977;44.816;20.538;2022-12-18T08:46:32;101625.00;;;0.54;89.89
66176;BME280;52977;44.816;20.538;2022-12-18T08:48:59;101687.22;;;0.91;88.11
66176;BME280;52977;44.816;20.538;2022-12-18T08:51:25;101687.66;;;0.88;87.26
66176;BME280;52977;44.816;20.538;2022-12-18T08:53:52;101647.94;;;0.23;90.07
66176;BME280;52977;44.816;20.538;2022-12-18T08:56:18;101663.69;;;0.46;90.46
66176;BME280;52977;44.816;20.538;2022-12-18T08:58:45;101675.03;;;0.55;90.20
66176;BME280;52977;44.816;20.538;2022-12-18T09:01:13;101640.91;;;0.22;91.75
66176;BME280;52977;44.816;20.538;2022-12-18T09:03:39;101663.88;;;0.51;89.95
66176;BME280;52977;44.816;20.538;2022-12-18T09:06:06;101582.88;;;0.14;89.69
66176;BME280;52977;44.816;20.538;2022-12-18T09:08:36;101693.25;;;0.73;88.84
66176;BME280;52977;44.816;20.538;2022-12-18T09:11:11;101643.19;;;0.39;90.89
66176;BME280;52977;44.816;20.538;2022-12-18T09:13:38;101695.28;;;0.71;91.39
66176;BME280;52977;44.816;20.538;2022-12-18T09:16:04;101573.75;;;-0.05;90.83
66176;BME280;52977;44.816;20.538;2022-12-18T09:18:31;101674.00;;;0.83;89.24
66176;BME280;52977;44.816;20.538;2022-12-18T09:20:57;101691.53;;;1.06;87.79
66176;BME280;52977;44.816;20.538;2022-12-18T09:23:23;101666.72;;;1.04;87.45
66176;BME280;52977;44.816;20.538;2022-12-18T09:25:49;101679.03;;;1.38;86.27
66176;BME280;52977;44.816;20.538;2022-12-18T09:28:17;101672.94;;;1.63;84.75
66176;BME280;52977;44.816;20.538;2022-12-18T09:30:46;101712.38;;;1.37;84.83
66176;BME280;52977;44.816;20.538;2022-12-18T09:33:13;101660.50;;;1.10;86.56
66176;BME280;52977;44.816;20.538;2022-12-18T09:35:40;101670.44;;;1.09;87.51
66176;BME280;52977;44.816;20.538;2022-12-18T09:38:08;101545.03;;;0.43;88.15
66176;BME280;52977;44.816;20.538;2022-12-18T09:40:41;101642.66;;;1.22;85.97
66176;BME280;52977;44.816;20.538;2022-12-18T09:43:17;101609.47;;;0.70;86.91
66176;BME280;52977;44.816;20.538;2022-12-18T09:45:49;101707.88;;;1.17;89.10
66176;BME280;52977;44.816;20.538;2022-12-18T09:48:27;101698.53;;;1.27;88.89
66176;BME280;52977;44.816;20.538;2022-12-18T09:50:59;101702.44;;;1.38;88.34
66176;BME280;52977;44.816;20.538;2022-12-18T09:53:31;101698.59;;;1.00;90.65
66176;BME280;52977;44.816;20.538;2022-12-18T09:56:00;101687.75;;;1.33;89.09
66176;BME280;52977;44.816;20.538;2022-12-18T09:58:45;101711.81;;;1.80;86.97
66176;BME280;52977;44.816;20.538;2022-12-18T10:01:16;101682.66;;;1.70;84.83
66176;BME280;52977;44.816;20.538;2022-12-18T10:03:44;101640.56;;;1.24;85.00
66176;BME280;52977;44.816;20.538;2022-12-18T10:06:28;101700.06;;;1.61;87.21
66176;BME280;52977;44.816;20.538;2022-12-18T10:11:57;101706.88;;;1.70;86.36
66176;BME280;52977;44.816;20.538;2022-12-18T10:14:52;101702.13;;;1.66;83.84
66176;BME280;52977;44.816;20.538;2022-12-18T10:20:13;101688.16;;;1.37;84.58
66176;BME280;52977;44.816;20.538;2022-12-18T10:22:50;101706.44;;;1.74;82.55
66176;BME280;52977;44.816;20.538;2022-12-18T10:25:32;101669.34;;;1.76;82.00
66176;BME280;52977;44.816;20.538;2022-12-18T10:28:13;101710.34;;;1.84;81.90
66176;BME280;52977;44.816;20.538;2022-12-18T10:30:41;101641.22;;;1.19;81.19
66176;BME280;52977;44.816;20.538;2022-12-18T10:33:20;101722.50;;;1.48;82.23
66176;BME280;52977;44.816;20.538;2022-12-18T10:35:51;101708.41;;;1.46;82.76
66176;BME280;52977;44.816;20.538;2022-12-18T10:40:58;101702.63;;;1.49;83.34
66176;BME280;52977;44.816;20.538;2022-12-18T10:46:04;101699.72;;;1.44;83.23
66176;BME280;52977;44.816;20.538;2022-12-18T10:48:36;101610.31;;;0.77;83.95
66176;BME280;52977;44.816;20.538;2022-12-18T10:51:06;101712.16;;;1.39;84.11
66176;BME280;52977;44.816;20.538;2022-12-18T10:53:36;101716.97;;;1.30;83.46
66176;BME280;52977;44.816;20.538;2022-12-18T10:56:04;101716.69;;;1.45;83.25
66176;BME280;52977;44.816;20.538;2022-12-18T10:58:35;101718.78;;;1.36;83.73
66176;BME280;52977;44.816;20.538;2022-12-18T11:03:38;101714.28;;;1.03;85.25
66176;BME280;52977;44.816;20.538;2022-12-18T11:06:16;101682.22;;;1.22;85.01
66176;BME280;52977;44.816;20.538;2022-12-18T11:08:46;101652.44;;;1.03;85.66
66176;BME280;52977;44.816;20.538;2022-12-18T11:11:23;101619.84;;;0.66;86.19
66176;BME280;52977;44.816;20.538;2022-12-18T11:14:03;101702.44;;;1.31;86.60
66176;BME280;52977;44.816;20.538;2022-12-18T11:16:34;101664.84;;;1.17;83.58
66176;BME280;52977;44.816;20.538;2022-12-18T11:21:55;101683.00;;;1.29;83.31
66176;BME280;52977;44.816;20.538;2022-12-18T11:24:32;101699.97;;;1.36;85.21
66176;BME280;52977;44.816;20.538;2022-12-18T11:27:16;101698.06;;;1.43;85.83
66176;BME280;52977;44.816;20.538;2022-12-18T11:29:44;101674.66;;;1.44;84.01
66176;BME280;52977;44.816;20.538;2022-12-18T11:32:25;101689.47;;;1.73;82.76
66176;BME280;52977;44.816;20.538;2022-12-18T11:35:01;101688.84;;;1.71;82.79
66176;BME280;52977;44.816;20.538;2022-12-18T11:37:29;101659.34;;;1.44;82.49
66176;BME280;52977;44.816;20.538;2022-12-18T11:40:10;101658.69;;;1.56;86.14
66176;BME280;52977;44.816;20.538;2022-12-18T11:42:41;101695.16;;;1.97;86.67
66176;BME280;52977;44.816;20.538;2022-12-18T11:50:18;101682.25;;;1.67;82.23
66176;BME280;52977;44.816;20.538;2022-12-18T11:52:45;101661.25;;;1.76;81.69
66176;BME280;52977;44.816;20.538;2022-12-18T11:55:13;101679.78;;;2.04;81.05
66176;BME280;52977;44.816;20.538;2022-12-18T11:57:50;101686.91;;;2.24;81.02
66176;BME280;52977;44.816;20.538;2022-12-18T12:00:22;101607.63;;;1.74;80.02
66176;BME280;52977;44.816;20.538;2022-12-18T12:11:35;101685.94;;;1.73;81.67
66176;BME280;52977;44.816;20.538;2022-12-18T12:16:48;101581.78;;;1.28;81.00
66176;BME280;52977;44.816;20.538;2022-12-18T12:19:42;101634.22;;;1.64;81.87
66176;BME280;52977;44.816;20.538;2022-12-18T12:22:35;101691.84;;;2.27;80.59
66176;BME280;52977;44.816;20.538;2022-12-18T12:25:28;101686.88;;;1.92;82.28
66176;BME280;52977;44.816;20.538;2022-12-18T12:31:09;101695.88;;;1.79;83.39
66176;BME280;52977;44.816;20.538;2022-12-18T12:34:11;101689.50;;;1.66;85.19
66176;BME280;52977;44.816;20.538;2022-12-18T12:39:40;101688.56;;;1.86;82.13
66176;BME280;52977;44.816;20.538;2022-12-18T12:43:15;101639.16;;;1.67;82.53
66176;BME280;52977;44.816;20.538;2022-12-18T12:51:06;101676.19;;;2.10;82.98
66176;BME280;52977;44.816;20.538;2022-12-18T12:53:36;101665.72;;;1.95;82.78
66176;BME280;52977;44.816;20.538;2022-12-18T12:56:04;101671.84;;;2.09;82.33
66176;BME280;52977;44.816;20.538;2022-12-18T13:06:35;101676.72;;;1.48;83.23
66176;BME280;52977;44.816;20.538;2022-12-18T13:08:59;101699.06;;;1.56;82.89
66176;BME280;52977;44.816;20.538;2022-12-18T13:11:46;101710.50;;;1.90;81.45
66176;BME280;52977;44.816;20.538;2022-12-18T13:14:36;101709.22;;;1.99;81.06
66176;BME280;52977;44.816;20.538;2022-12-18T13:19:49;101739.22;;;1.64;82.54
66176;BME280;52977;44.816;20.538;2022-12-18T13:22:25;101718.63;;;1.83;81.92
66176;BME280;52977;44.816;20.538;2022-12-18T13:24:54;101672.34;;;1.54;82.29
66176;BME280;52977;44.816;20.538;2022-12-18T13:30:41;101725.97;;;2.08;82.42
66176;BME280;52977;44.816;20.538;2022-12-18T13:38:34;101719.81;;;1.48;85.13
66176;BME280;52977;44.816;20.538;2022-12-18T13:51:23;101681.22;;;0.96;84.10
66176;BME280;52977;44.816;20.538;2022-12-18T13:54:01;101721.28;;;1.31;84.08
66176;BME280;52977;44.816;20.538;2022-12-18T13:56:31;101734.69;;;1.51;84.70
66176;BME280;52977;44.816;20.538;2022-12-18T14:01:57;101749.97;;;1.64;85.39
66176;BME280;52977;44.816;20.538;2022-12-18T14:04:29;101755.75;;;1.67;85.88
66176;BME280;52977;44.816;20.538;2022-12-18T14:07:03;101690.22;;;1.35;85.40
66176;BME280;52977;44.816;20.538;2022-12-18T14:09:35;101763.13;;;1.92;85.13
66176;BME280;52977;44.816;20.538;2022-12-18T14:12:02;101758.31;;;2.01;84.73
66176;BME280;52977;44.816;20.538;2022-12-18T14:14:49;101746.88;;;2.12;82.24
66176;BME280;52977;44.816;20.538;2022-12-18T14:17:17;101759.53;;;2.05;81.91
66176;BME280;52977;44.816;20.538;2022-12-18T14:19:49;101710.09;;;1.34;83.82
66176;BME280;52977;44.816;20.538;2022-12-18T14:22:21;101721.94;;;1.19;84.69
66176;BME280;52977;44.816;20.538;2022-12-18T14:27:50;101767.19;;;1.56;85.71
66176;BME280;52977;44.816;20.538;2022-12-18T14:30:31;101771.63;;;1.89;85.08
66176;BME280;52977;44.816;20.538;2022-12-18T14:35:36;101762.94;;;1.87;85.58
66176;BME280;52977;44.816;20.538;2022-12-18T14:40:42;101780.03;;;1.47;89.75
66176;BME280;52977;44.816;20.538;2022-12-18T14:43:10;101795.81;;;1.37;90.81
66176;BME280;52977;44.816;20.538;2022-12-18T14:45:42;101723.38;;;1.15;90.39
66176;BME280;52977;44.816;20.538;2022-12-18T14:48:15;101759.38;;;1.41;90.08
66176;BME280;52977;44.816;20.538;2022-12-18T14:50:42;101726.50;;;0.99;92.01
66176;BME280;52977;44.816;20.538;2022-12-18T14:53:27;101694.88;;;0.94;90.57
66176;BME280;52977;44.816;20.538;2022-12-18T14:55:55;101766.16;;;1.44;90.53
66176;BME280;52977;44.816;20.538;2022-12-18T14:58:21;101786.88;;;1.57;89.81